METAR v bližini

 

LJMB - Maribor Edvarda Rusjana, Slovenia
Oddaljenost od postaje: SV 30,9km
Podatki zajeti: 06/12/2022 02:00
Oblačno
Oblačno
 Veter iz smeri SSV
Veter: SSV 15 km/h
Temperatura: 5°C
Občutek mraza zaradi vetra: 2°C
Rosišče: 4°C
Vlažnost: 93%
Tlak: 1016 hPa
Oblačnost: Oblačno
Vidljivost: 10 km
Podrobnosti o oblakih: Oblačno 183 m
2022/12/06 01:00 LJMB 060100Z AUTO 02008KT 9999 OVC006/// 05/04 Q1016
LJLJ - Ljubljana Brnik, Slovenia
Oddaljenost od postaje: S 103km
Podatki zajeti: 06/12/2022 02:00
Oblačno
Oblačno
 Veter iz smeri Z
Veter: Z 7 km/h
Temperatura: 5°C
Občutek mraza zaradi vetra: 3°C
Rosišče: 5°C
Vlažnost: 100%
Tlak: 1015 hPa
Oblačnost: Oblačno
Vidljivost: 7 km
Podrobnosti o oblakih: Delno oblačno 91 m
Pretežno oblačno 244 m
Oblačno 518 m
2022/12/06 01:00 LJLJ 060100Z 27004KT 240V300 7000 SCT003 BKN008 OVC017 05/05 Q1015 NOSIG
 
LJPZ - Portorož, Slovenia
Oddaljenost od postaje: SSZ 224km
Podatki zajeti: 06/12/2022 02:00
Pretežno oblačno
Pretežno oblačno
 Veter iz smeri calm
Veter: Mirno
Temperatura: 11°C
Rosišče: 10°C
Vlažnost: 94%
Tlak: 1016 hPa
Oblačnost: Pretežno oblačno
Vidljivost: 6 km
Podrobnosti o oblakih: Rahlo oblačno 305 m
Delno oblačno 488 m
Pretežno oblačno 610 m
2022/12/06 01:00 LJPZ 060100Z AUTO 00000KT 6000 FEW010/// SCT016/// BKN020/// 11/10 Q1016
LJCE - Cerklje, Slovenia
Oddaljenost od postaje: VSV 83,9km
Podatki zajeti: 06/12/2022 02:00
Rahlo dežuje, Meglice, Oblačno
Rahlo dežuje, Meglice, Oblačno
 Veter iz smeri V
Veter: V 11 km/h
Temperatura: 5°C
Občutek mraza zaradi vetra: 2°C
Rosišče: 5°C
Vlažnost: 100%
Tlak: 1016 hPa
Stanje: Rahlo dežuje, Meglice
Oblačnost: Oblačno
Vidljivost: 6 km
Podrobnosti o oblakih: Pretežno oblačno 61 m
Oblačno 1402 m
2022/12/06 01:00 LJCE 060100Z AUTO 10006KT 060V120 6000 -RA BR BKN002/// OVC046/// 05/05 Q1016 RERASN
 
LOWG - Graz, Austria
Oddaljenost od postaje: SSZ 99,6km
Podatki zajeti: 06/12/2022 01:50
Rahlo oblačno
Rahlo oblačno
 Veter iz smeri spremenljiv
Veter: spremenljiv 4 km/h
Temperatura: 3°C
Rosišče: 2°C
Vlažnost: 93%
Tlak: 1016 hPa
Oblačnost: Rahlo oblačno
Vidljivost: 10 km
Podrobnosti o oblakih: Rahlo oblačno 1219 m
2022/12/06 00:50 LOWG 060050Z AUTO VRB02KT 9999 FEW040 03/02 Q1016
LOWK - Klagenfurt, Austria
Oddaljenost od postaje: SZ 121km
Podatki zajeti: 06/12/2022 01:50
Pretežno oblačno
Pretežno oblačno
 Veter iz smeri SZ
Veter: SZ 7 km/h
Temperatura: 3°C
Občutek mraza zaradi vetra: 1°C
Rosišče: 3°C
Vlažnost: 100%
Tlak: 1016 hPa
Oblačnost: Pretežno oblačno
Vidljivost: 10 km
Podrobnosti o oblakih: Rahlo oblačno 183 m
Pretežno oblačno 457 m
2022/12/06 00:50 LOWK 060050Z AUTO 31004KT 9999 FEW006 BKN015 03/03 Q1016
 
LDRI - Rijeka, Croatia
Oddaljenost od postaje: SZ 243km
Podatki zajeti: 06/12/2022 02:00
Nevihte v okolici, Pretežno oblačno
Nevihte v okolici, Pretežno oblačno
 Veter iz smeri VJV
Veter: VJV 9 km/h
Temperatura: 10°C
Občutek mraza zaradi vetra: 9°C
Rosišče: 9°C
Vlažnost: 94%
Tlak: 1015 hPa
Stanje: Nevihte v okolici
Oblačnost: Pretežno oblačno
Vidljivost: 10 km
Podrobnosti o oblakih: Rahlo oblačno 914 m
Delno oblačno 914 m
Pretežno oblačno 1219 m
2022/12/06 01:00 LDRI 060100Z 12005KT 9999 VCTS FEW030CB SCT030 BKN040 10/09 Q1015
LIPQ - Ronchi, Italy
Oddaljenost od postaje: VJV 224km
Podatki zajeti: 06/12/2022 01:50
Meglice, Oblačno
Meglice, Oblačno
 Veter iz smeri spremenljiv
Veter: spremenljiv 4 km/h
Temperatura: 9°C
Rosišče: 9°C
Vlažnost: 100%
Tlak: 1016 hPa
Stanje: Meglice
Oblačnost: Oblačno
Vidljivost: 5 km
Podrobnosti o oblakih: Pretežno oblačno 61 m
Oblačno 457 m
2022/12/06 00:50 LIPQ 060050Z AUTO VRB02KT 4800 BR BKN002/// OVC015/// 09/09 Q1016
 
LDZA - Zagreb, Croatia
Oddaljenost od postaje: JJV 143km
Podatki zajeti: 06/12/2022 02:00
Padavine, Meglice, Oblačno
Padavine, Meglice, Oblačno
 Veter iz smeri spremenljiv
Veter: spremenljiv 2 km/h
Temperatura: 5°C
Rosišče: 5°C
Vlažnost: 100%
Tlak: 1016 hPa
Stanje: Padavine, Meglice
Oblačnost: Oblačno
Vidljivost: 3 km
Podrobnosti o oblakih: Delno oblačno 122 m
Oblačno 1372 m
2022/12/06 01:00 LDZA 060100Z VRB01KT 3000 RA BR SCT004 OVC045 05/05 Q1016 NOSIG
LIVT - Trieste, Italy
Oddaljenost od postaje: ZSZ 250km
Podatki zajeti: 06/12/2022 01:55

 Veter iz smeri VSV
Veter: VSV 4 km/h
Temperatura: 11°C
Rosišče: 10°C
Vlažnost: 94%
Tlak: 1015 hPa
2022/12/06 00:55 LIVT 060055Z AUTO 06002KT //// 11/10 Q1015
 
LIPA - Aviano, Italy
Oddaljenost od postaje: S 310km
Podatki zajeti: 05/12/2022 23:55
Ni posodobljen
Meglice, Pretežno oblačno
Meglice, Pretežno oblačno
 Veter iz smeri VSV
Veter: VSV 7 km/h
Temperatura: 7°C
Občutek mraza zaradi vetra: 6°C
Rosišče: 6°C
Vlažnost: 93%
Tlak: 1015 hPa
Stanje: Meglice
Oblačnost: Pretežno oblačno
Vidljivost: 1 km
Podrobnosti o oblakih: Pretežno oblačno 305 m
2022/12/05 22:55 LIPA 052255Z 06004KT 1200 BR BKN010 07/06 Q1015
LDPL - Pula, Croatia
Oddaljenost od postaje: SSV 304km
Podatki zajeti: 06/12/2022 02:00
Rahlo dežuje, Pretežno oblačno
Rahlo dežuje, Pretežno oblačno
 Veter iz smeri Z
Veter: Z 13 km/h
Temperatura: 11°C
Rosišče: 10°C
Vlažnost: 94%
Tlak: 1016 hPa
Stanje: Rahlo dežuje
Oblačnost: Pretežno oblačno
Vidljivost: 10 km
Podrobnosti o oblakih: Rahlo oblačno 122 m
Pretežno oblačno 305 m
Pretežno oblačno 1219 m
2022/12/06 01:00 LDPL 060100Z 28007KT 9999 -RA FEW004 BKN010 BKN040 11/10 Q1016 RERA